Time;durP1;ratioP1;P1;durP2;ratioP2;P2;SDS_P1;SDS_P2;PMS_P1;PMS_P2;Temp;Humidity;BMP_temperature;BMP_pressure;BME280_temperature;BME280_humidity;BME280_pressure;Samples;Min_cycle;Max_cycle;Signal;HPM_P1;HPM_P2
2021/07/15 00:00:24;;;;;;;24.35;15.07;;;;;;;25.56;58.49;99539.19;5033384;28;20098;-13
2021/07/15 00:02:51;;;;;;;21.30;14.70;;;;;;;25.82;58.54;99553.28;5033600;28;20041;-11
2021/07/15 00:05:17;;;;;;;22.35;15.10;;;;;;;25.75;58.26;99544.03;5034894;28;20410;-11
2021/07/15 00:07:44;;;;;;;21.67;15.70;;;;;;;25.54;58.71;99523.25;5015813;28;20052;-12
2021/07/15 00:10:23;;;;;;;25.08;15.77;;;;;;;25.44;59.07;99530.25;5033214;28;20095;-12
2021/07/15 00:12:51;;;;;;;23.63;17.75;;;;;;;25.57;58.74;99547.09;5034710;28;20513;-12
2021/07/15 00:15:20;;;;;;;24.95;18.00;;;;;;;25.54;58.82;99522.38;5016612;28;20038;-12
2021/07/15 00:17:48;;;;;;;28.45;17.30;;;;;;;25.63;58.14;99536.91;5033100;28;20442;-12
2021/07/15 00:20:15;;;;;;;25.25;16.35;;;;;;;25.76;58.21;99530.50;5033054;28;20034;-12
2021/07/15 00:22:42;;;;;;;24.58;15.00;;;;;;;25.90;57.63;99523.25;5033545;28;20044;-12
2021/07/15 00:25:12;;;;;;;24.02;17.05;;;;;;;26.04;57.62;99538.31;5033042;28;20132;-12
2021/07/15 00:27:39;;;;;;;25.10;16.87;;;;;;;25.87;58.35;99518.16;5032926;28;20041;-13
2021/07/15 00:30:14;;;;;;;28.42;16.55;;;;;;;25.91;58.07;99523.13;5033704;28;20546;-13
2021/07/15 00:32:40;;;;;;;22.33;16.20;;;;;;;25.97;57.25;99510.25;5033583;28;20052;-11
2021/07/15 00:35:08;;;;;;;23.83;16.90;;;;;;;26.07;57.49;99522.00;5032723;28;20528;-11
2021/07/15 00:37:35;;;;;;;25.20;18.95;;;;;;;25.87;57.96;99486.00;5049593;28;20057;-11
2021/07/15 00:40:15;;;;;;;26.35;19.10;;;;;;;25.81;58.33;99510.56;5032788;28;20040;-11
2021/07/15 00:42:42;;;;;;;24.38;17.00;;;;;;;25.97;57.78;99508.44;5032536;28;20502;-11
2021/07/15 00:45:10;;;;;;;29.30;19.60;;;;;;;26.05;57.19;99514.09;5032591;28;20053;-11
2021/07/15 00:47:37;;;;;;;26.27;20.08;;;;;;;25.99;57.93;99508.31;5032348;28;20041;-11
2021/07/15 00:50:07;;;;;;;28.10;22.02;;;;;;;25.75;58.97;99509.22;5015890;28;20045;-11
2021/07/15 00:52:34;;;;;;;30.13;19.98;;;;;;;25.63;58.40;99507.44;5032374;28;20079;-12
2021/07/15 00:55:00;;;;;;;30.42;19.77;;;;;;;25.76;57.83;99502.88;5032679;28;20139;-12
2021/07/15 00:57:27;;;;;;;37.38;25.98;;;;;;;25.82;58.91;99504.25;5032252;28;20116;-12
2021/07/15 00:59:53;;;;;;;29.25;22.52;;;;;;;25.73;59.23;99505.78;5048909;28;20046;-12
2021/07/15 01:02:20;;;;;;;30.23;20.65;;;;;;;25.69;58.73;99507.84;5032298;28;20041;-12
2021/07/15 01:04:46;;;;;;;24.98;18.73;;;;;;;25.78;58.64;99517.00;5032487;28;20522;-13
2021/07/15 01:07:13;;;;;;;29.30;18.70;;;;;;;25.79;58.74;99510.69;5032041;28;20095;-11
2021/07/15 01:09:39;;;;;;;21.63;14.77;;;;;;;25.57;57.59;99468.63;5032298;28;20079;-11
2021/07/15 01:12:47;;;;;;;30.75;19.08;;;;;;;25.61;58.27;99512.91;5033564;28;20038;-11
2021/07/15 01:15:22;;;;;;;26.58;16.80;;;;;;;25.57;58.11;99501.59;5032685;28;20049;-11
2021/07/15 01:18:24;;;;;;;20.60;16.98;;;;;;;25.81;57.85;99510.56;5033622;28;20103;-11
2021/07/15 01:21:32;;;;;;;24.63;18.02;;;;;;;25.80;58.92;99527.59;5032237;28;20111;-11
2021/07/15 01:24:17;;;;;;;27.92;17.52;;;;;;;25.45;60.39;99515.91;5048406;28;20080;-11
2021/07/15 01:27:21;;;;;;;27.48;17.13;;;;;;;24.99;61.63;99516.53;5048698;28;20449;-11
2021/07/15 01:29:47;;;;;;;24.00;15.55;;;;;;;25.10;60.61;99522.81;5032085;28;20499;-12
2021/07/15 01:32:17;;;;;;;23.08;16.02;;;;;;;25.16;61.16;99523.34;5031746;28;20060;-11
2021/07/15 01:34:45;;;;;;;20.65;14.95;;;;;;;25.19;61.32;99512.44;5032043;28;20037;-11
2021/07/15 01:37:12;;;;;;;24.83;15.35;;;;;;;25.40;60.94;99512.69;5031622;28;20068;-12
2021/07/15 01:39:42;;;;;;;21.45;17.42;;;;;;;25.00;61.68;99508.41;5033096;28;20536;-11
2021/07/15 01:42:13;;;;;;;26.67;15.23;;;;;;;25.02;61.80;99519.84;5031540;28;20041;-12
2021/07/15 01:44:40;;;;;;;27.40;18.15;;;;;;;24.73;62.45;99501.41;5033119;28;20125;-11
2021/07/15 01:47:07;;;;;;;28.88;16.95;;;;;;;24.63;62.24;99487.00;5048162;28;20045;-12
2021/07/15 01:49:34;;;;;;;20.55;14.65;;;;;;;24.89;61.43;99506.50;5031412;28;20526;-12
2021/07/15 01:52:01;;;;;;;22.52;16.60;;;;;;;24.95;61.88;99505.22;5031504;28;20060;-11
2021/07/15 01:54:29;;;;;;;23.17;16.55;;;;;;;24.90;61.78;99502.88;5014995;28;20391;-11
2021/07/15 01:56:57;;;;;;;20.95;15.98;;;;;;;24.66;62.87;99499.28;5032900;28;20498;-12
2021/07/15 01:59:28;;;;;;;23.27;16.42;;;;;;;24.54;62.54;99496.47;5031319;28;20056;-11
2021/07/15 02:01:57;;;;;;;20.65;17.35;;;;;;;24.49;63.80;99490.59;5031722;28;20072;-11
2021/07/15 02:04:27;;;;;;;23.80;19.10;;;;;;;24.50;63.82;99502.16;5032523;28;20125;-11
2021/07/15 02:06:54;;;;;;;24.75;18.67;;;;;;;24.55;63.30;99486.66;5031519;28;20155;-12
2021/07/15 02:09:23;;;;;;;26.10;18.10;;;;;;;24.78;62.90;99498.41;5031072;28;20267;-12
2021/07/15 02:11:51;;;;;;;26.25;18.10;;;;;;;25.07;61.70;99487.41;5031199;28;20064;-12
2021/07/15 02:14:21;;;;;;;23.35;17.90;;;;;;;24.95;61.73;99497.19;5032495;28;20282;-11
2021/07/15 02:16:51;;;;;;;22.27;16.92;;;;;;;25.10;61.55;99493.41;5032489;28;20049;-11
2021/07/15 02:19:22;;;;;;;27.02;18.20;;;;;;;25.21;61.27;99489.09;5031153;28;20048;-21
2021/07/15 02:21:51;;;;;;;;;;;;;;;25.47;60.84;99503.25;5033043;28;20514;-12
2021/07/15 02:24:21;;;;;;;27.80;19.17;;;;;;;25.46;61.06;99498.00;5014695;28;20336;-12
2021/07/15 02:26:50;;;;;;;23.17;19.02;;;;;;;25.25;61.61;99498.59;5032294;28;20128;-12
2021/07/15 02:29:18;;;;;;;22.63;17.55;;;;;;;25.10;61.79;99495.22;5031043;28;20555;-12
2021/07/15 02:31:49;;;;;;;26.00;19.38;;;;;;;25.12;62.52;99493.28;5034798;28;20037;-12
2021/07/15 02:34:30;;;;;;;23.27;17.65;;;;;;;25.35;59.82;99501.50;5036305;28;20528;-12
2021/07/15 02:37:00;;;;;;;30.80;19.33;;;;;;;25.61;60.86;99506.72;5034590;28;20053;-11
2021/07/15 02:39:27;;;;;;;26.15;18.58;;;;;;;25.49;59.99;99497.78;5032696;28;20048;-11
2021/07/15 02:41:54;;;;;;;27.45;18.38;;;;;;;25.21;60.26;99460.53;5018745;28;20060;-12
2021/07/15 02:44:21;;;;;;;24.88;18.75;;;;;;;25.14;62.40;99498.53;5034814;28;20417;-12
2021/07/15 02:46:47;;;;;;;21.98;15.30;;;;;;;25.14;60.42;99494.03;5036025;28;20045;-12
2021/07/15 02:49:13;;;;;;;23.30;17.98;;;;;;;25.50;59.02;99507.50;5035957;28;20049;-12
2021/07/15 02:51:39;;;;;;;23.38;16.27;;;;;;;25.61;58.75;99498.69;5034863;28;20057;-12
2021/07/15 02:54:05;;;;;;;23.80;17.67;;;;;;;25.84;59.79;99505.84;5018228;28;20091;-12
2021/07/15 02:56:40;;;;;;;22.33;16.48;;;;;;;25.90;58.08;99505.38;5035850;28;20068;-11
2021/07/15 02:59:18;;;;;;;21.88;16.80;;;;;;;25.96;59.31;99514.75;5035832;28;20033;-11
2021/07/15 03:01:52;;;;;;;22.63;16.65;;;;;;;25.95;58.79;99504.19;5034885;28;20414;-12
2021/07/15 03:04:29;;;;;;;28.20;20.65;;;;;;;25.79;60.62;99521.41;5035746;28;20111;-12
2021/07/15 03:06:59;;;;;;;25.88;18.25;;;;;;;25.93;58.34;99510.50;5034569;28;20041;-12
2021/07/15 03:09:30;;;;;;;27.73;20.83;;;;;;;25.74;60.42;99499.47;5034640;28;20044;-12
2021/07/15 03:12:05;;;;;;;22.02;17.80;;;;;;;25.70;58.79;99506.03;5051138;28;20064;-12
2021/07/15 03:14:35;;;;;;;18.48;14.65;;;;;;;25.91;57.26;99498.19;5034855;28;20498;-12
2021/07/15 03:17:04;;;;;;;21.75;17.52;;;;;;;25.84;58.80;99496.94;5035380;28;20111;-12
2021/07/15 03:19:32;;;;;;;22.80;18.40;;;;;;;25.71;60.04;99503.22;5050809;28;20418;-12
2021/07/15 03:22:01;;;;;;;29.08;21.50;;;;;;;25.55;61.16;99508.03;5035704;28;20049;-12
2021/07/15 03:24:33;;;;;;;25.42;20.30;;;;;;;25.41;61.86;99506.41;5034067;28;20108;-12
2021/07/15 03:27:04;;;;;;;27.33;22.75;;;;;;;25.06;63.29;99517.81;5034240;28;20052;-12
2021/07/15 03:29:35;;;;;;;29.90;22.95;;;;;;;24.83;62.66;99516.78;5018074;28;20038;-12
2021/07/15 03:32:06;;;;;;;22.25;17.00;;;;;;;25.17;61.19;99514.34;5033831;28;20506;-11
2021/07/15 03:34:34;;;;;;;22.17;17.98;;;;;;;25.44;59.29;99495.44;5050571;28;20041;-12
2021/07/15 03:37:03;;;;;;;27.02;20.08;;;;;;;25.41;61.12;99501.88;5017205;28;20053;-12
2021/07/15 03:39:30;;;;;;;27.10;22.27;;;;;;;25.22;61.92;99507.69;5035380;28;20507;-11
2021/07/15 03:41:57;;;;;;;27.20;22.10;;;;;;;25.44;60.99;99506.16;5033792;28;20052;-12
2021/07/15 03:44:25;;;;;;;22.10;18.90;;;;;;;25.42;60.36;99519.66;5034993;28;20037;-12
2021/07/15 03:46:53;;;;;;;30.27;23.33;;;;;;;24.93;62.57;99513.34;5017156;28;20164;-10
2021/07/15 03:49:28;;;;;;;28.80;23.20;;;;;;;24.89;62.13;99490.47;5033647;28;20175;-10
2021/07/15 03:51:56;;;;;;;33.75;23.73;;;;;;;24.99;61.87;99509.41;5033536;28;20045;-12
2021/07/15 03:54:23;;;;;;;35.22;22.92;;;;;;;25.02;61.93;99511.84;5034768;28;20045;-12
2021/07/15 03:56:52;;;;;;;25.52;21.48;;;;;;;25.02;62.00;99511.00;5016858;28;20056;-12
2021/07/15 03:59:21;;;;;;;30.05;20.77;;;;;;;25.11;61.11;99510.31;5034980;28;20038;-12
2021/07/15 04:02:01;;;;;;;25.88;19.85;;;;;;;25.46;61.19;99524.75;5016988;28;20399;-12
2021/07/15 04:04:29;;;;;;;29.50;20.95;;;;;;;25.51;60.27;99512.75;5034676;28;20044;-11
2021/07/15 04:06:59;;;;;;;26.02;20.75;;;;;;;25.55;60.30;99503.53;5033511;28;20045;-10
2021/07/15 04:09:30;;;;;;;25.15;19.67;;;;;;;25.65;59.62;99506.38;5034367;28;20037;-11
2021/07/15 04:11:57;;;;;;;30.45;23.20;;;;;;;25.82;60.01;99493.53;5033119;28;20491;-11
2021/07/15 04:14:39;;;;;;;26.02;19.88;;;;;;;25.52;60.90;99498.41;5033188;28;20043;-11
2021/07/15 04:17:07;;;;;;;32.60;24.52;;;;;;;25.61;61.06;99522.78;5032974;28;20529;-11
2021/07/15 04:19:35;;;;;;;20.83;18.20;;;;;;;25.65;59.31;99497.50;5049673;28;20491;-11
2021/07/15 04:22:04;;;;;;;32.17;24.10;;;;;;;25.76;59.73;99506.41;5049952;28;20087;-11
2021/07/15 04:24:33;;;;;;;31.33;23.42;;;;;;;25.67;60.42;99483.03;5033212;28;20076;-11
2021/07/15 04:27:02;;;;;;;31.80;22.65;;;;;;;25.99;60.02;99500.28;5033971;28;20049;-11
2021/07/15 04:29:30;;;;;;;27.58;21.67;;;;;;;26.02;59.34;99489.31;5049420;28;20033;-11
2021/07/15 04:32:27;;;;;;;23.17;18.95;;;;;;;26.25;59.04;99509.84;5016331;28;20128;-11
2021/07/15 04:34:58;;;;;;;31.67;24.05;;;;;;;26.04;59.86;99500.81;5033093;28;20491;-11
2021/07/15 04:37:26;;;;;;;33.22;23.67;;;;;;;25.84;60.46;99494.25;5032281;28;20119;-10
2021/07/15 04:39:54;;;;;;;37.47;26.23;;;;;;;25.71;60.16;99479.13;5033796;28;20495;-11
2021/07/15 04:42:23;;;;;;;37.95;27.33;;;;;;;25.94;60.54;99489.91;5033742;28;20072;-11
2021/07/15 04:44:50;;;;;;;34.45;26.02;;;;;;;25.73;61.02;99484.38;5032491;28;20127;-10
2021/07/15 04:47:21;;;;;;;38.03;23.77;;;;;;;25.67;61.27;99477.69;5033657;28;20034;-11
2021/07/15 04:49:47;;;;;;;37.40;25.30;;;;;;;25.79;61.43;99501.78;5015706;28;20037;-11
2021/07/15 04:52:16;;;;;;;36.10;25.60;;;;;;;25.72;61.04;99496.91;5032297;28;20499;-10
2021/07/15 04:54:43;;;;;;;32.33;23.42;;;;;;;25.79;61.45;99483.91;5033371;28;20041;-11
2021/07/15 04:57:12;;;;;;;30.02;22.88;;;;;;;25.89;60.91;99482.25;5033709;28;20053;-11
2021/07/15 04:59:40;;;;;;;37.38;25.00;;;;;;;25.96;60.29;99482.63;5033495;28;20506;-11
2021/07/15 05:02:06;;;;;;;31.75;23.05;;;;;;;26.06;59.21;99470.25;5032173;28;20037;-11
2021/07/15 05:04:33;;;;;;;33.45;24.02;;;;;;;26.30;59.60;99481.88;5015683;28;20422;-11
2021/07/15 05:07:00;;;;;;;30.85;21.05;;;;;;;26.40;58.38;99489.06;5032146;28;20118;-10
2021/07/15 05:09:26;;;;;;;41.25;25.73;;;;;;;26.34;59.50;99473.47;5033380;28;20041;-11
2021/07/15 05:11:52;;;;;;;36.55;22.05;;;;;;;26.60;58.08;99486.63;5032402;28;20060;-11
2021/07/15 05:14:18;;;;;;;28.67;24.67;;;;;;;26.68;58.21;99467.25;5033243;28;20091;-11
2021/07/15 05:16:44;;;;;;;35.03;26.27;;;;;;;26.82;58.06;99488.47;5033234;28;20037;-11
2021/07/15 05:19:11;;;;;;;40.45;26.83;;;;;;;26.76;58.41;99480.09;5033518;28;20548;-11
2021/07/15 05:21:37;;;;;;;33.05;22.13;;;;;;;26.79;58.26;99483.38;5033925;28;20482;-11
2021/07/15 05:24:03;;;;;;;30.02;19.80;;;;;;;26.98;57.10;99484.56;5031841;28;20525;-11
2021/07/15 05:26:29;;;;;;;35.42;25.42;;;;;;;27.03;57.39;99477.00;5048387;28;20053;-11
2021/07/15 05:28:57;;;;;;;36.78;25.85;;;;;;;27.05;56.96;99472.34;5032994;28;20124;-11
2021/07/15 05:31:24;;;;;;;38.35;27.23;;;;;;;27.10;57.36;99486.22;5015286;28;20045;-11
2021/07/15 05:33:50;;;;;;;26.50;20.38;;;;;;;27.10;55.89;99478.19;5033211;28;20033;-11
2021/07/15 05:36:17;;;;;;;32.53;24.05;;;;;;;27.21;56.51;99472.81;5015150;28;20422;-11
2021/07/15 05:38:43;;;;;;;32.88;24.10;;;;;;;27.29;55.75;99458.75;5014965;28;20064;-11
2021/07/15 05:41:10;;;;;;;36.03;25.92;;;;;;;27.46;55.81;99478.00;5032687;28;20041;-11
2021/07/15 05:43:38;;;;;;;34.75;25.58;;;;;;;27.49;56.06;99473.22;5047653;28;20061;-11
2021/07/15 05:46:04;;;;;;;33.45;24.98;;;;;;;27.43;55.99;99471.06;5032634;28;20045;-11
2021/07/15 05:48:30;;;;;;;35.78;25.70;;;;;;;27.50;55.69;99468.72;5014937;28;20045;-12
2021/07/15 05:50:57;;;;;;;37.85;26.67;;;;;;;27.44;55.89;99458.47;5031594;28;20168;-11
2021/07/15 05:53:23;;;;;;;32.50;25.13;;;;;;;27.46;56.21;99464.59;5032655;28;20041;-11
2021/07/15 05:55:49;;;;;;;31.55;23.05;;;;;;;27.49;55.58;99456.28;5031557;28;20106;-11
2021/07/15 05:58:16;;;;;;;34.13;26.42;;;;;;;27.59;55.34;99459.88;5032835;28;20045;-12
2021/07/15 06:00:42;;;;;;;34.50;24.45;;;;;;;27.52;54.85;99448.81;5032843;28;20061;-12
2021/07/15 06:03:09;;;;;;;41.42;26.48;;;;;;;27.54;55.37;99454.88;5031261;28;20041;-12
2021/07/15 06:05:35;;;;;;;27.52;20.13;;;;;;;27.72;54.67;99455.19;5047133;28;20124;-12
2021/07/15 06:08:01;;;;;;;31.40;25.17;;;;;;;27.86;54.28;99459.38;5032859;28;20037;-12
2021/07/15 06:10:29;;;;;;;28.13;22.63;;;;;;;27.99;53.21;99472.63;5032829;28;20084;-11
2021/07/15 06:12:55;;;;;;;32.45;25.35;;;;;;;28.06;53.77;99465.75;5032552;28;20037;-11
2021/07/15 06:15:22;;;;;;;27.92;20.55;;;;;;;28.08;53.01;99448.66;5031473;28;20052;-11
2021/07/15 06:17:51;;;;;;;29.38;22.77;;;;;;;28.00;53.54;99443.91;5032237;28;20065;-11
2021/07/15 06:20:21;;;;;;;30.75;23.58;;;;;;;28.10;53.31;99462.81;5047349;28;20038;-11
2021/07/15 06:22:47;;;;;;;31.45;25.20;;;;;;;28.16;53.29;99449.69;5032410;28;20044;-11
2021/07/15 06:25:14;;;;;;;30.70;25.67;;;;;;;28.14;53.74;99456.19;5031140;28;20041;-11
2021/07/15 06:27:42;;;;;;;31.05;25.05;;;;;;;28.17;53.63;99459.47;5032146;28;20045;-11
2021/07/15 06:30:11;;;;;;;31.27;22.73;;;;;;;28.33;53.40;99453.59;5030912;28;20045;-11
2021/07/15 06:32:37;;;;;;;29.40;23.65;;;;;;;28.25;53.32;99441.81;5014503;28;20442;-11
2021/07/15 06:35:05;;;;;;;30.92;22.55;;;;;;;28.37;52.93;99456.88;5031278;28;20041;-11
2021/07/15 06:37:36;;;;;;;38.30;25.20;;;;;;;28.35;53.10;99456.16;5031802;28;20056;-10
2021/07/15 06:40:05;;;;;;;30.75;23.38;;;;;;;28.31;53.50;99443.97;5047166;28;20045;-12
2021/07/15 06:42:33;;;;;;;35.22;24.13;;;;;;;28.37;52.69;99438.06;5030918;28;20045;-12
2021/07/15 06:44:59;;;;;;;33.15;24.45;;;;;;;28.53;52.29;99449.16;5030255;28;20644;-13
2021/07/15 06:47:25;;;;;;;31.73;25.27;;;;;;;28.43;52.19;99428.59;5047532;28;20053;-13
2021/07/15 06:49:52;;;;;;;32.47;23.80;;;;;;;28.51;52.31;99440.38;5031797;28;20045;-11
2021/07/15 06:52:18;;;;;;;30.30;23.25;;;;;;;28.60;51.99;99429.78;5030730;28;20053;-13
2021/07/15 06:54:44;;;;;;;31.08;22.40;;;;;;;28.61;51.99;99426.97;5031918;28;20503;-13
2021/07/15 06:57:11;;;;;;;27.23;24.20;;;;;;;28.62;52.38;99425.13;5032027;28;20037;-12
2021/07/15 06:59:37;;;;;;;28.55;22.13;;;;;;;28.91;51.60;99438.69;5030678;28;20065;-12
2021/07/15 07:02:06;;;;;;;27.73;23.35;;;;;;;28.95;51.43;99431.19;4998141;28;20045;-12
2021/07/15 07:04:32;;;;;;;28.17;23.08;;;;;;;29.06;50.55;99444.53;5032093;28;20554;-12
2021/07/15 07:06:58;;;;;;;69.75;46.40;;;;;;;29.09;50.53;99444.25;5047089;28;20037;-10
2021/07/15 07:09:24;;;;;;;33.67;24.40;;;;;;;29.22;50.14;99438.59;5030626;28;20517;-10
2021/07/15 07:11:51;;;;;;;32.95;25.45;;;;;;;29.09;50.44;99432.63;5014158;28;20045;-12
2021/07/15 07:14:17;;;;;;;29.42;21.20;;;;;;;29.18;50.18;99432.63;5047351;28;20099;-12
2021/07/15 07:16:43;;;;;;;32.55;23.55;;;;;;;29.14;50.75;99428.53;5033623;28;20049;-12
2021/07/15 07:19:09;;;;;;;29.10;22.27;;;;;;;29.29;49.78;99437.06;5035333;28;20156;-12
2021/07/15 07:21:35;;;;;;;26.30;20.75;;;;;;;29.36;49.94;99442.75;5034109;28;20056;-12
2021/07/15 07:24:01;;;;;;;29.35;22.38;;;;;;;29.49;49.06;99446.00;5028871;28;20112;-12
2021/07/15 07:26:27;;;;;;;30.08;21.80;;;;;;;29.37;49.78;99433.66;5031918;28;20041;-12
2021/07/15 07:28:53;;;;;;;25.15;18.67;;;;;;;29.35;49.84;99444.56;5035225;28;20041;-10
2021/07/15 07:31:20;;;;;;;31.00;24.40;;;;;;;29.29;49.19;99428.13;5035132;28;20050;-12
2021/07/15 07:33:46;;;;;;;23.40;17.85;;;;;;;29.40;49.16;99435.22;5035141;28;20452;-12
2021/07/15 07:36:12;;;;;;;34.00;22.58;;;;;;;29.33;49.55;99421.47;5035211;28;20073;-12
2021/07/15 07:38:38;;;;;;;21.77;17.90;;;;;;;29.56;49.18;99418.50;5034884;28;20045;-10
2021/07/15 07:41:04;;;;;;;21.92;17.58;;;;;;;29.71;48.90;99433.22;5032118;28;20064;-12
2021/07/15 07:43:30;;;;;;;21.52;18.50;;;;;;;29.80;48.34;99418.91;5033129;28;20494;-12
2021/07/15 07:45:57;;;;;;;31.10;22.98;;;;;;;29.78;47.96;99423.56;5031957;28;20095;-12
2021/07/15 07:48:23;;;;;;;32.83;23.75;;;;;;;29.56;48.48;99429.28;4999265;28;20044;-18
2021/07/15 07:50:49;;;;;;;25.38;19.92;;;;;;;29.58;49.26;99408.44;5033290;28;20045;-12
2021/07/15 07:53:15;;;;;;;26.88;22.05;;;;;;;29.66;48.43;99395.94;5033480;28;20048;-12
2021/07/15 07:55:43;;;;;;;34.30;24.98;;;;;;;29.87;47.91;99405.72;5033744;28;20045;-11
2021/07/15 07:58:12;;;;;;;38.65;26.77;;;;;;;30.02;47.30;99420.44;5033839;28;20064;-23
2021/07/15 08:00:38;;;;;;;83.45;54.97;;;;;;;30.08;46.73;99410.91;5033345;28;20110;-13
2021/07/15 08:03:04;;;;;;;45.95;31.58;;;;;;;30.06;47.06;99407.50;5049912;28;20554;-12
2021/07/15 08:05:31;;;;;;;51.67;35.88;;;;;;;30.06;46.41;99410.19;5033220;28;20462;-12
2021/07/15 08:07:58;;;;;;;42.78;28.90;;;;;;;30.16;46.25;99413.72;5016816;28;20044;-10
2021/07/15 08:10:24;;;;;;;37.45;28.40;;;;;;;30.11;47.09;99386.34;5033223;28;20041;-12
2021/07/15 08:12:52;;;;;;;29.73;22.85;;;;;;;30.22;46.98;99406.91;5016589;28;20056;-10
2021/07/15 08:15:18;;;;;;;25.80;20.73;;;;;;;30.11;46.72;99402.53;5016593;28;20057;-12
2021/07/15 08:17:45;;;;;;;26.73;20.50;;;;;;;30.18;45.99;99390.16;5034413;28;20052;-12
2021/07/15 08:20:11;;;;;;;30.83;22.30;;;;;;;30.40;44.13;99411.50;5034604;28;20127;-10
2021/07/15 08:22:39;;;;;;;28.70;19.15;;;;;;;30.31;44.50;99410.53;5033047;28;20071;-12
2021/07/15 08:25:07;;;;;;;22.65;18.55;;;;;;;30.22;44.24;99393.41;5017455;28;20047;-12
2021/07/15 08:27:34;;;;;;;31.35;26.30;;;;;;;30.33;44.31;99395.06;5032234;28;20045;-13
2021/07/15 08:30:00;;;;;;;28.55;19.83;;;;;;;30.50;45.09;99396.16;5034236;28;20056;-12
2021/07/15 08:32:27;;;;;;;34.50;27.75;;;;;;;30.61;45.27;99403.19;5032858;28;20112;-11
2021/07/15 08:34:53;;;;;;;25.30;19.77;;;;;;;30.57;43.73;99407.19;5017111;28;20043;-11
2021/07/15 08:37:19;;;;;;;23.90;19.00;;;;;;;30.16;43.86;99384.06;5033576;28;20133;-13
2021/07/15 08:39:46;;;;;;;24.63;20.80;;;;;;;30.35;43.66;99393.91;5033803;28;20076;-11
2021/07/15 08:42:14;;;;;;;17.63;14.70;;;;;;;30.34;43.44;99404.88;5033870;28;20077;-13
2021/07/15 08:44:40;;;;;;;18.70;14.82;;;;;;;30.26;43.63;99402.91;5016069;28;20073;-13
2021/07/15 08:47:08;;;;;;;17.85;13.75;;;;;;;30.24;44.17;99401.34;5033906;28;20041;-13
2021/07/15 08:49:38;;;;;;;16.98;13.90;;;;;;;30.30;43.14;99392.69;5015706;28;20045;-13
2021/07/15 08:52:04;;;;;;;20.83;17.60;;;;;;;30.27;43.77;99391.13;5033637;28;20037;-13
2021/07/15 08:54:47;;;;;;;19.35;14.55;;;;;;;30.25;43.77;99386.88;5032328;28;20777;-11
2021/07/15 08:57:15;;;;;;;20.05;15.23;;;;;;;30.33;43.02;99395.06;5033485;28;20499;-13
2021/07/15 08:59:42;;;;;;;21.58;15.82;;;;;;;30.22;43.47;99379.06;5033260;28;20037;-13
2021/07/15 09:02:19;;;;;;;23.10;16.42;;;;;;;30.31;43.16;99384.44;5033167;28;20124;-13
2021/07/15 09:04:46;;;;;;;19.00;16.05;;;;;;;30.22;43.44;99362.91;5032113;28;20052;-13
2021/07/15 09:07:13;;;;;;;18.55;15.75;;;;;;;30.48;42.49;99381.97;4999307;28;20087;-13
2021/07/15 09:09:40;;;;;;;14.95;12.95;;;;;;;30.50;41.84;99370.03;5032043;28;20045;-13
2021/07/15 09:12:07;;;;;;;17.70;13.10;;;;;;;30.55;40.89;99376.81;5032220;28;20037;-12
2021/07/15 09:14:50;;;;;;;15.20;13.43;;;;;;;30.55;41.71;99361.50;5033259;28;20053;-12
2021/07/15 09:17:28;;;;;;;16.63;13.77;;;;;;;30.64;42.55;99367.84;5016021;28;20045;-12
2021/07/15 09:19:54;;;;;;;14.25;12.25;;;;;;;30.70;42.99;99348.31;5030515;28;20037;-12
2021/07/15 09:22:20;;;;;;;17.83;13.32;;;;;;;30.83;41.67;99342.56;5030419;28;20076;-12
2021/07/15 09:24:47;;;;;;;12.88;11.32;;;;;;;30.90;39.62;99345.47;5033310;28;20439;-12
2021/07/15 09:27:22;;;;;;;15.38;11.95;;;;;;;30.98;39.53;99345.56;5032051;28;20103;-12
2021/07/15 09:30:09;;;;;;;13.48;12.10;;;;;;;31.21;40.31;99337.88;5031760;28;20387;-12
2021/07/15 09:32:56;;;;;;;16.77;12.38;;;;;;;31.49;39.27;99335.88;5015312;28;20532;-12
2021/07/15 09:35:27;;;;;;;15.93;12.65;;;;;;;31.67;39.03;99333.19;5033475;28;20486;-10
2021/07/15 09:37:55;;;;;;;15.13;12.65;;;;;;;31.63;39.41;99323.69;5032688;28;20061;-12
2021/07/15 09:40:59;;;;;;;19.02;15.40;;;;;;;31.33;39.58;99319.59;5032330;28;20040;-12
2021/07/15 09:43:27;;;;;;;15.98;13.52;;;;;;;31.47;39.74;99316.31;5028564;28;20513;-12
2021/07/15 09:46:01;;;;;;;15.82;14.10;;;;;;;31.57;39.81;99313.50;5031142;28;20049;-12
2021/07/15 09:48:31;;;;;;;15.25;13.23;;;;;;;31.69;39.52;99310.56;5030964;28;20041;-12
2021/07/15 09:51:00;;;;;;;17.70;12.82;;;;;;;31.69;37.87;99306.00;5030769;28;20045;-13
2021/07/15 09:53:34;;;;;;;18.30;12.40;;;;;;;31.69;37.93;99294.34;5030209;28;20037;-12
2021/07/15 09:56:04;;;;;;;15.75;13.18;;;;;;;31.62;38.13;99289.56;5023704;28;20520;-12
2021/07/15 09:58:45;;;;;;;14.65;12.70;;;;;;;31.84;37.67;99309.78;5032484;28;20048;-13
2021/07/15 10:01:24;;;;;;;12.93;11.35;;;;;;;31.87;38.98;99300.53;5024460;28;20045;-12
2021/07/15 10:03:54;;;;;;;12.77;10.35;;;;;;;31.96;40.09;99309.53;5012009;28;20042;-12
2021/07/15 10:06:21;;;;;;;13.75;11.50;;;;;;;31.91;38.35;99298.34;5010044;28;20053;-12
2021/07/15 10:08:55;;;;;;;13.05;11.80;;;;;;;32.02;37.12;99310.72;4993536;28;20128;-12
2021/07/15 10:11:28;;;;;;;12.25;10.95;;;;;;;31.99;37.42;99296.53;5019715;28;20096;-11
2021/07/15 10:14:08;;;;;;;15.65;13.35;;;;;;;31.83;37.88;99294.59;5014853;28;20042;-12
2021/07/15 10:16:39;;;;;;;13.43;12.07;;;;;;;31.81;37.80;99293.03;5025875;28;20140;-12
2021/07/15 10:19:09;;;;;;;21.73;15.65;;;;;;;31.64;39.60;99308.31;5024862;28;20042;-12
2021/07/15 10:21:37;;;;;;;18.35;14.95;;;;;;;31.72;39.77;99300.28;5011516;28;20037;-12
2021/07/15 10:24:23;;;;;;;18.75;14.70;;;;;;;31.70;41.02;99293.34;5009987;28;20069;-12
2021/07/15 10:26:52;;;;;;;17.80;15.68;;;;;;;31.48;39.96;99282.88;5022314;28;20048;-13
2021/07/15 10:29:20;;;;;;;16.13;14.05;;;;;;;31.24;41.13;99293.50;5038465;28;20037;-13
2021/07/15 10:31:49;;;;;;;22.88;14.90;;;;;;;30.73;42.36;99291.38;5010495;28;20184;-12
2021/07/15 10:34:15;;;;;;;17.20;14.45;;;;;;;30.81;42.54;99291.44;5009735;28;20156;-12
2021/07/15 10:36:43;;;;;;;17.75;12.73;;;;;;;30.75;42.73;99324.44;5011282;28;20557;-11
2021/07/15 10:39:13;;;;;;;22.00;12.50;;;;;;;30.16;43.42;99313.13;5016361;28;20037;-12
2021/07/15 10:41:45;;;;;;;21.13;10.80;;;;;;;29.83;43.54;99345.03;5018788;28;20029;-13
2021/07/15 10:44:13;;;;;;;13.52;10.23;;;;;;;29.40;44.92;99349.94;5020774;28;20703;-13
2021/07/15 10:46:41;;;;;;;19.48;11.00;;;;;;;28.92;46.46;99356.16;5030547;28;20053;-13
2021/07/15 10:49:10;;;;;;;18.73;10.48;;;;;;;29.10;47.21;99361.66;5018333;28;20076;-12
2021/07/15 10:51:43;;;;;;;13.35;9.95;;;;;;;28.41;48.22;99368.72;4996900;28;20038;-13
2021/07/15 10:54:16;;;;;;;16.23;9.48;;;;;;;28.52;48.11;99374.00;5016231;28;20050;-13
2021/07/15 10:56:48;;;;;;;12.25;9.65;;;;;;;27.95;50.01;99404.03;5014671;28;20038;-13
2021/07/15 10:59:25;;;;;;;13.57;9.80;;;;;;;27.90;50.10;99415.16;5029858;28;20393;-13
2021/07/15 11:01:54;;;;;;;14.73;9.07;;;;;;;27.40;50.70;99417.63;5033366;28;20768;-13
2021/07/15 11:04:33;;;;;;;13.18;9.80;;;;;;;27.12;51.16;99417.22;5034362;28;20056;-13
2021/07/15 11:07:14;;;;;;;12.40;8.80;;;;;;;27.30;51.25;99408.59;5025070;28;20124;-13
2021/07/15 11:09:40;;;;;;;15.55;9.02;;;;;;;27.33;51.53;99430.69;5022489;28;20499;-12
2021/07/15 11:12:32;;;;;;;13.55;9.20;;;;;;;26.98;54.05;99428.25;4990574;28;20124;-12
2021/07/15 11:15:13;;;;;;;28.77;15.32;;;;;;;27.12;56.10;99433.31;5012497;28;20049;-13
2021/07/15 11:17:52;;;;;;;14.93;9.63;;;;;;;26.61;56.11;99461.53;5011296;28;20045;-13
2021/07/15 11:20:29;;;;;;;16.63;10.73;;;;;;;25.52;58.92;99474.31;5030300;28;20056;-19
2021/07/15 11:22:56;;;;;;;20.40;9.57;;;;;;;24.44;66.56;99479.38;5031409;28;20052;-13
2021/07/15 11:25:29;;;;;;;20.65;11.88;;;;;;;23.04;84.11;99495.75;5032739;28;20064;-12
2021/07/15 11:28:03;;;;;;;23.08;12.13;;;;;;;22.03;94.26;99494.88;5013423;28;20515;-13